sensor_id;sensor_type;location;lat;lon;timestamp;P1;durP1;ratioP1;P2;durP2;ratioP2
22973;SDS011;11653;50.848;4.584;2023-03-19T00:00:03;7.37;;;5.50;;
22973;SDS011;11653;50.848;4.584;2023-03-19T00:02:34;9.53;;;5.93;;
22973;SDS011;11653;50.848;4.584;2023-03-19T00:05:00;8.20;;;5.50;;
22973;SDS011;11653;50.848;4.584;2023-03-19T00:07:26;7.93;;;5.30;;
22973;SDS011;11653;50.848;4.584;2023-03-19T00:09:52;7.20;;;5.60;;
22973;SDS011;11653;50.848;4.584;2023-03-19T00:12:18;9.50;;;5.37;;
22973;SDS011;11653;50.848;4.584;2023-03-19T00:14:43;11.50;;;5.87;;
22973;SDS011;11653;50.848;4.584;2023-03-19T00:17:09;6.73;;;5.43;;
22973;SDS011;11653;50.848;4.584;2023-03-19T00:19:35;8.60;;;5.67;;
22973;SDS011;11653;50.848;4.584;2023-03-19T00:22:01;8.80;;;5.07;;
22973;SDS011;11653;50.848;4.584;2023-03-19T00:24:27;9.13;;;5.23;;
22973;SDS011;11653;50.848;4.584;2023-03-19T00:26:53;7.30;;;5.10;;
22973;SDS011;11653;50.848;4.584;2023-03-19T00:29:19;6.43;;;4.50;;
22973;SDS011;11653;50.848;4.584;2023-03-19T00:31:45;6.57;;;4.30;;
22973;SDS011;11653;50.848;4.584;2023-03-19T00:34:11;7.50;;;4.40;;
22973;SDS011;11653;50.848;4.584;2023-03-19T00:36:37;7.10;;;4.50;;
22973;SDS011;11653;50.848;4.584;2023-03-19T00:39:03;7.40;;;3.93;;
22973;SDS011;11653;50.848;4.584;2023-03-19T00:41:30;5.00;;;3.43;;
22973;SDS011;11653;50.848;4.584;2023-03-19T00:43:56;4.43;;;3.60;;
22973;SDS011;11653;50.848;4.584;2023-03-19T00:46:23;5.60;;;4.10;;
22973;SDS011;11653;50.848;4.584;2023-03-19T00:48:49;5.83;;;4.20;;
22973;SDS011;11653;50.848;4.584;2023-03-19T00:51:19;5.90;;;3.70;;
22973;SDS011;11653;50.848;4.584;2023-03-19T00:53:46;6.03;;;3.60;;
22973;SDS011;11653;50.848;4.584;2023-03-19T00:56:12;5.03;;;3.20;;
22973;SDS011;11653;50.848;4.584;2023-03-19T00:58:39;5.80;;;3.70;;
22973;SDS011;11653;50.848;4.584;2023-03-19T01:01:07;4.50;;;3.23;;
22973;SDS011;11653;50.848;4.584;2023-03-19T01:03:34;7.03;;;3.43;;
22973;SDS011;11653;50.848;4.584;2023-03-19T01:05:59;5.40;;;3.63;;
22973;SDS011;11653;50.848;4.584;2023-03-19T01:08:25;3.63;;;3.23;;
22973;SDS011;11653;50.848;4.584;2023-03-19T01:10:51;5.20;;;3.27;;
22973;SDS011;11653;50.848;4.584;2023-03-19T01:13:17;4.50;;;3.33;;
22973;SDS011;11653;50.848;4.584;2023-03-19T01:15:43;8.10;;;3.40;;
22973;SDS011;11653;50.848;4.584;2023-03-19T01:18:09;4.37;;;3.20;;
22973;SDS011;11653;50.848;4.584;2023-03-19T01:20:37;6.40;;;3.40;;
22973;SDS011;11653;50.848;4.584;2023-03-19T01:23:04;4.00;;;3.20;;
22973;SDS011;11653;50.848;4.584;2023-03-19T01:25:32;3.87;;;3.30;;
22973;SDS011;11653;50.848;4.584;2023-03-19T01:27:58;4.80;;;3.37;;
22973;SDS011;11653;50.848;4.584;2023-03-19T01:30:24;7.00;;;3.80;;
22973;SDS011;11653;50.848;4.584;2023-03-19T01:32:50;5.77;;;3.43;;
22973;SDS011;11653;50.848;4.584;2023-03-19T01:35:16;8.20;;;3.80;;
22973;SDS011;11653;50.848;4.584;2023-03-19T01:37:43;8.80;;;3.67;;
22973;SDS011;11653;50.848;4.584;2023-03-19T01:40:11;5.97;;;3.77;;
22973;SDS011;11653;50.848;4.584;2023-03-19T01:42:51;8.30;;;4.00;;
22973;SDS011;11653;50.848;4.584;2023-03-19T01:45:30;5.63;;;4.07;;
22973;SDS011;11653;50.848;4.584;2023-03-19T01:47:56;4.63;;;3.70;;
22973;SDS011;11653;50.848;4.584;2023-03-19T01:50:55;6.67;;;4.17;;
22973;SDS011;11653;50.848;4.584;2023-03-19T01:53:15;6.07;;;3.60;;
22973;SDS011;11653;50.848;4.584;2023-03-19T01:55:43;5.93;;;4.10;;
22973;SDS011;11653;50.848;4.584;2023-03-19T01:58:10;6.97;;;4.10;;
22973;SDS011;11653;50.848;4.584;2023-03-19T02:00:36;8.33;;;4.87;;
22973;SDS011;11653;50.848;4.584;2023-03-19T02:03:03;5.57;;;4.00;;
22973;SDS011;11653;50.848;4.584;2023-03-19T02:05:31;5.70;;;4.17;;
22973;SDS011;11653;50.848;4.584;2023-03-19T02:07:59;6.37;;;3.87;;
22973;SDS011;11653;50.848;4.584;2023-03-19T02:10:29;6.43;;;4.30;;
22973;SDS011;11653;50.848;4.584;2023-03-19T02:12:55;6.50;;;4.30;;
22973;SDS011;11653;50.848;4.584;2023-03-19T02:15:21;5.43;;;4.40;;
22973;SDS011;11653;50.848;4.584;2023-03-19T02:17:47;7.30;;;4.20;;
22973;SDS011;11653;50.848;4.584;2023-03-19T02:20:16;11.63;;;4.50;;
22973;SDS011;11653;50.848;4.584;2023-03-19T02:28:16;7.90;;;4.83;;
22973;SDS011;11653;50.848;4.584;2023-03-19T02:30:46;5.83;;;4.87;;
22973;SDS011;11653;50.848;4.584;2023-03-19T02:33:13;10.07;;;5.47;;
22973;SDS011;11653;50.848;4.584;2023-03-19T02:35:41;6.90;;;5.33;;
22973;SDS011;11653;50.848;4.584;2023-03-19T02:38:10;6.10;;;4.67;;
22973;SDS011;11653;50.848;4.584;2023-03-19T02:40:38;8.80;;;5.47;;
22973;SDS011;11653;50.848;4.584;2023-03-19T02:43:09;6.50;;;5.27;;
22973;SDS011;11653;50.848;4.584;2023-03-19T02:45:35;8.67;;;5.73;;
22973;SDS011;11653;50.848;4.584;2023-03-19T02:48:01;8.27;;;5.53;;
22973;SDS011;11653;50.848;4.584;2023-03-19T02:50:26;12.87;;;5.90;;
22973;SDS011;11653;50.848;4.584;2023-03-19T02:52:52;8.77;;;5.40;;
22973;SDS011;11653;50.848;4.584;2023-03-19T02:55:18;11.20;;;6.13;;
22973;SDS011;11653;50.848;4.584;2023-03-19T02:57:45;9.43;;;5.87;;
22973;SDS011;11653;50.848;4.584;2023-03-19T03:00:11;9.27;;;6.07;;
22973;SDS011;11653;50.848;4.584;2023-03-19T03:02:37;10.73;;;6.17;;
22973;SDS011;11653;50.848;4.584;2023-03-19T03:05:04;8.40;;;6.33;;
22973;SDS011;11653;50.848;4.584;2023-03-19T03:07:30;10.20;;;6.77;;
22973;SDS011;11653;50.848;4.584;2023-03-19T03:09:57;10.27;;;6.23;;
22973;SDS011;11653;50.848;4.584;2023-03-19T03:12:23;8.97;;;5.80;;
22973;SDS011;11653;50.848;4.584;2023-03-19T03:14:49;8.13;;;6.27;;
22973;SDS011;11653;50.848;4.584;2023-03-19T03:17:15;10.53;;;7.10;;
22973;SDS011;11653;50.848;4.584;2023-03-19T03:19:41;16.50;;;7.03;;
22973;SDS011;11653;50.848;4.584;2023-03-19T03:22:06;9.73;;;6.67;;
22973;SDS011;11653;50.848;4.584;2023-03-19T03:24:32;12.70;;;7.30;;
22973;SDS011;11653;50.848;4.584;2023-03-19T03:26:58;10.90;;;7.03;;
22973;SDS011;11653;50.848;4.584;2023-03-19T03:29:24;11.57;;;7.50;;
22973;SDS011;11653;50.848;4.584;2023-03-19T03:31:52;10.23;;;8.37;;
22973;SDS011;11653;50.848;4.584;2023-03-19T03:34:18;11.03;;;8.07;;
22973;SDS011;11653;50.848;4.584;2023-03-19T03:36:48;12.33;;;9.00;;
22973;SDS011;11653;50.848;4.584;2023-03-19T03:39:14;12.97;;;9.57;;
22973;SDS011;11653;50.848;4.584;2023-03-19T03:41:40;19.90;;;11.77;;
22973;SDS011;11653;50.848;4.584;2023-03-19T03:44:06;19.20;;;12.30;;
22973;SDS011;11653;50.848;4.584;2023-03-19T03:46:32;18.03;;;12.60;;
22973;SDS011;11653;50.848;4.584;2023-03-19T03:48:58;21.07;;;13.37;;
22973;SDS011;11653;50.848;4.584;2023-03-19T03:51:24;22.40;;;13.13;;
22973;SDS011;11653;50.848;4.584;2023-03-19T03:53:50;21.67;;;15.50;;
22973;SDS011;11653;50.848;4.584;2023-03-19T03:56:16;22.90;;;14.80;;
22973;SDS011;11653;50.848;4.584;2023-03-19T03:58:42;23.67;;;14.73;;
22973;SDS011;11653;50.848;4.584;2023-03-19T04:01:09;24.53;;;16.23;;
22973;SDS011;11653;50.848;4.584;2023-03-19T04:03:39;25.60;;;15.93;;
22973;SDS011;11653;50.848;4.584;2023-03-19T04:06:05;25.07;;;16.13;;
22973;SDS011;11653;50.848;4.584;2023-03-19T04:08:34;28.53;;;17.20;;
22973;SDS011;11653;50.848;4.584;2023-03-19T04:11:00;26.17;;;17.13;;
22973;SDS011;11653;50.848;4.584;2023-03-19T04:13:31;27.83;;;17.30;;
22973;SDS011;11653;50.848;4.584;2023-03-19T04:16:02;28.27;;;17.17;;
22973;SDS011;11653;50.848;4.584;2023-03-19T04:18:29;29.37;;;16.47;;
22973;SDS011;11653;50.848;4.584;2023-03-19T04:20:55;30.30;;;17.90;;
22973;SDS011;11653;50.848;4.584;2023-03-19T04:23:21;27.47;;;17.57;;
22973;SDS011;11653;50.848;4.584;2023-03-19T04:25:48;33.73;;;18.23;;
22973;SDS011;11653;50.848;4.584;2023-03-19T04:28:14;30.53;;;17.37;;
22973;SDS011;11653;50.848;4.584;2023-03-19T04:30:40;28.17;;;16.67;;
22973;SDS011;11653;50.848;4.584;2023-03-19T04:33:07;27.03;;;15.93;;
22973;SDS011;11653;50.848;4.584;2023-03-19T04:35:34;23.27;;;14.63;;
22973;SDS011;11653;50.848;4.584;2023-03-19T04:38:00;23.53;;;15.47;;
22973;SDS011;11653;50.848;4.584;2023-03-19T04:40:26;22.63;;;14.53;;
22973;SDS011;11653;50.848;4.584;2023-03-19T04:42:52;22.77;;;14.30;;
22973;SDS011;11653;50.848;4.584;2023-03-19T04:45:19;21.07;;;14.13;;
22973;SDS011;11653;50.848;4.584;2023-03-19T04:47:45;24.20;;;14.17;;
22973;SDS011;11653;50.848;4.584;2023-03-19T04:50:10;22.53;;;14.30;;
22973;SDS011;11653;50.848;4.584;2023-03-19T04:52:38;23.10;;;14.73;;
22973;SDS011;11653;50.848;4.584;2023-03-19T04:55:04;23.13;;;15.53;;
22973;SDS011;11653;50.848;4.584;2023-03-19T04:57:31;23.03;;;14.77;;
22973;SDS011;11653;50.848;4.584;2023-03-19T04:59:58;21.20;;;13.93;;
22973;SDS011;11653;50.848;4.584;2023-03-19T05:02:24;23.27;;;13.43;;
22973;SDS011;11653;50.848;4.584;2023-03-19T05:04:51;21.60;;;14.13;;
22973;SDS011;11653;50.848;4.584;2023-03-19T05:07:17;21.83;;;13.50;;
22973;SDS011;11653;50.848;4.584;2023-03-19T05:09:43;21.70;;;14.83;;
22973;SDS011;11653;50.848;4.584;2023-03-19T05:12:10;22.57;;;14.30;;
22973;SDS011;11653;50.848;4.584;2023-03-19T05:14:36;20.40;;;12.77;;
22973;SDS011;11653;50.848;4.584;2023-03-19T05:17:02;21.03;;;14.20;;
22973;SDS011;11653;50.848;4.584;2023-03-19T05:19:28;20.23;;;12.40;;
22973;SDS011;11653;50.848;4.584;2023-03-19T05:21:54;22.80;;;13.50;;
22973;SDS011;11653;50.848;4.584;2023-03-19T05:24:21;18.83;;;12.10;;
22973;SDS011;11653;50.848;4.584;2023-03-19T05:26:47;21.50;;;12.43;;
22973;SDS011;11653;50.848;4.584;2023-03-19T05:29:13;22.73;;;12.60;;
22973;SDS011;11653;50.848;4.584;2023-03-19T05:31:40;23.73;;;13.77;;
22973;SDS011;11653;50.848;4.584;2023-03-19T05:34:05;24.77;;;13.83;;
22973;SDS011;11653;50.848;4.584;2023-03-19T05:36:32;20.70;;;13.13;;
22973;SDS011;11653;50.848;4.584;2023-03-19T05:38:58;19.37;;;11.60;;
22973;SDS011;11653;50.848;4.584;2023-03-19T05:41:24;18.67;;;12.23;;
22973;SDS011;11653;50.848;4.584;2023-03-19T05:43:50;24.07;;;11.53;;
22973;SDS011;11653;50.848;4.584;2023-03-19T05:46:16;17.63;;;11.03;;
22973;SDS011;11653;50.848;4.584;2023-03-19T05:48:41;21.37;;;11.90;;
22973;SDS011;11653;50.848;4.584;2023-03-19T05:51:07;17.37;;;11.43;;
22973;SDS011;11653;50.848;4.584;2023-03-19T05:53:33;19.43;;;11.73;;
22973;SDS011;11653;50.848;4.584;2023-03-19T05:55:59;20.73;;;12.53;;
22973;SDS011;11653;50.848;4.584;2023-03-19T05:58:24;22.70;;;12.00;;
22973;SDS011;11653;50.848;4.584;2023-03-19T06:00:50;20.57;;;12.17;;
22973;SDS011;11653;50.848;4.584;2023-03-19T06:03:20;19.33;;;12.37;;
22973;SDS011;11653;50.848;4.584;2023-03-19T06:05:49;21.90;;;12.60;;
22973;SDS011;11653;50.848;4.584;2023-03-19T06:08:16;20.43;;;12.40;;
22973;SDS011;11653;50.848;4.584;2023-03-19T06:10:42;23.43;;;12.70;;
22973;SDS011;11653;50.848;4.584;2023-03-19T06:13:08;21.23;;;11.77;;
22973;SDS011;11653;50.848;4.584;2023-03-19T06:15:33;19.47;;;11.63;;
22973;SDS011;11653;50.848;4.584;2023-03-19T06:17:59;17.77;;;11.43;;
22973;SDS011;11653;50.848;4.584;2023-03-19T06:20:25;19.90;;;11.07;;
22973;SDS011;11653;50.848;4.584;2023-03-19T06:22:51;19.57;;;10.80;;
22973;SDS011;11653;50.848;4.584;2023-03-19T06:25:17;19.53;;;11.27;;
22973;SDS011;11653;50.848;4.584;2023-03-19T06:27:42;19.00;;;11.30;;
22973;SDS011;11653;50.848;4.584;2023-03-19T06:30:08;17.30;;;11.43;;
22973;SDS011;11653;50.848;4.584;2023-03-19T06:32:34;14.20;;;9.83;;
22973;SDS011;11653;50.848;4.584;2023-03-19T06:35:01;12.47;;;7.53;;
22973;SDS011;11653;50.848;4.584;2023-03-19T06:37:27;13.07;;;7.43;;
22973;SDS011;11653;50.848;4.584;2023-03-19T06:39:52;10.43;;;5.83;;
22973;SDS011;11653;50.848;4.584;2023-03-19T06:42:22;10.13;;;6.07;;
22973;SDS011;11653;50.848;4.584;2023-03-19T06:44:48;14.60;;;6.90;;
22973;SDS011;11653;50.848;4.584;2023-03-19T06:47:14;11.73;;;7.07;;
22973;SDS011;11653;50.848;4.584;2023-03-19T06:49:40;14.57;;;6.47;;
22973;SDS011;11653;50.848;4.584;2023-03-19T06:52:05;9.70;;;5.93;;
22973;SDS011;11653;50.848;4.584;2023-03-19T06:54:31;10.80;;;5.67;;
22973;SDS011;11653;50.848;4.584;2023-03-19T06:56:57;10.40;;;5.80;;
22973;SDS011;11653;50.848;4.584;2023-03-19T06:59:23;10.00;;;6.33;;
22973;SDS011;11653;50.848;4.584;2023-03-19T07:01:49;9.67;;;6.47;;
22973;SDS011;11653;50.848;4.584;2023-03-19T07:04:16;9.57;;;6.63;;
22973;SDS011;11653;50.848;4.584;2023-03-19T07:06:42;9.40;;;6.93;;
22973;SDS011;11653;50.848;4.584;2023-03-19T07:09:08;9.00;;;6.33;;
22973;SDS011;11653;50.848;4.584;2023-03-19T07:11:33;10.17;;;7.43;;
22973;SDS011;11653;50.848;4.584;2023-03-19T07:13:59;11.87;;;7.97;;
22973;SDS011;11653;50.848;4.584;2023-03-19T07:16:25;11.00;;;7.40;;
22973;SDS011;11653;50.848;4.584;2023-03-19T07:18:51;12.47;;;8.33;;
22973;SDS011;11653;50.848;4.584;2023-03-19T07:21:17;14.43;;;8.77;;
22973;SDS011;11653;50.848;4.584;2023-03-19T07:23:42;12.27;;;8.20;;
22973;SDS011;11653;50.848;4.584;2023-03-19T07:26:10;11.83;;;7.50;;
22973;SDS011;11653;50.848;4.584;2023-03-19T07:28:38;10.27;;;6.93;;
22973;SDS011;11653;50.848;4.584;2023-03-19T07:31:05;11.03;;;7.07;;
22973;SDS011;11653;50.848;4.584;2023-03-19T07:33:31;12.63;;;7.00;;
22973;SDS011;11653;50.848;4.584;2023-03-19T07:35:57;11.37;;;6.60;;
22973;SDS011;11653;50.848;4.584;2023-03-19T07:38:22;8.10;;;6.73;;
22973;SDS011;11653;50.848;4.584;2023-03-19T07:40:48;11.53;;;6.50;;
22973;SDS011;11653;50.848;4.584;2023-03-19T07:43:15;10.87;;;5.97;;
22973;SDS011;11653;50.848;4.584;2023-03-19T07:45:41;10.90;;;7.00;;
22973;SDS011;11653;50.848;4.584;2023-03-19T07:48:08;10.70;;;6.30;;
22973;SDS011;11653;50.848;4.584;2023-03-19T07:50:35;10.90;;;6.03;;
22973;SDS011;11653;50.848;4.584;2023-03-19T07:53:00;9.30;;;5.70;;
22973;SDS011;11653;50.848;4.584;2023-03-19T07:55:26;11.43;;;5.23;;
22973;SDS011;11653;50.848;4.584;2023-03-19T07:57:52;12.93;;;5.63;;
22973;SDS011;11653;50.848;4.584;2023-03-19T08:00:17;10.17;;;5.33;;
22973;SDS011;11653;50.848;4.584;2023-03-19T08:02:44;11.30;;;4.73;;
22973;SDS011;11653;50.848;4.584;2023-03-19T08:05:10;10.67;;;4.53;;
22973;SDS011;11653;50.848;4.584;2023-03-19T08:07:35;14.40;;;4.80;;
22973;SDS011;11653;50.848;4.584;2023-03-19T08:10:05;12.67;;;4.80;;
22973;SDS011;11653;50.848;4.584;2023-03-19T08:12:31;13.77;;;4.83;;
22973;SDS011;11653;50.848;4.584;2023-03-19T08:14:58;11.13;;;4.33;;
22973;SDS011;11653;50.848;4.584;2023-03-19T08:17:24;9.53;;;4.63;;
22973;SDS011;11653;50.848;4.584;2023-03-19T08:19:50;9.73;;;3.93;;
22973;SDS011;11653;50.848;4.584;2023-03-19T08:22:15;8.10;;;3.63;;
22973;SDS011;11653;50.848;4.584;2023-03-19T08:24:41;11.07;;;3.77;;
22973;SDS011;11653;50.848;4.584;2023-03-19T08:27:07;11.83;;;4.33;;
22973;SDS011;11653;50.848;4.584;2023-03-19T08:29:34;10.87;;;4.50;;
22973;SDS011;11653;50.848;4.584;2023-03-19T08:32:00;12.13;;;4.53;;
22973;SDS011;11653;50.848;4.584;2023-03-19T08:34:26;11.73;;;4.00;;
22973;SDS011;11653;50.848;4.584;2023-03-19T08:36:52;10.23;;;4.07;;
22973;SDS011;11653;50.848;4.584;2023-03-19T08:39:18;12.17;;;3.53;;
22973;SDS011;11653;50.848;4.584;2023-03-19T08:41:43;11.60;;;3.83;;
22973;SDS011;11653;50.848;4.584;2023-03-19T08:44:09;8.50;;;3.33;;
22973;SDS011;11653;50.848;4.584;2023-03-19T10:07:47;11.53;;;2.57;;
22973;SDS011;11653;50.848;4.584;2023-03-19T10:36:04;7.90;;;1.83;;
22973;SDS011;11653;50.848;4.584;2023-03-19T10:38:38;7.83;;;2.70;;
22973;SDS011;11653;50.848;4.584;2023-03-19T10:56:24;13.33;;;2.27;;
22973;SDS011;11653;50.848;4.584;2023-03-19T11:17:04;14.13;;;2.97;;
22973;SDS011;11653;50.848;4.584;2023-03-19T11:19:40;11.07;;;2.73;;
22973;SDS011;11653;50.848;4.584;2023-03-19T11:22:16;9.80;;;2.70;;
22973;SDS011;11653;50.848;4.584;2023-03-19T11:27:32;9.83;;;2.70;;
22973;SDS011;11653;50.848;4.584;2023-03-19T11:33:41;7.53;;;2.50;;
22973;SDS011;11653;50.848;4.584;2023-03-19T11:36:32;8.27;;;3.20;;
22973;SDS011;11653;50.848;4.584;2023-03-19T11:44:52;10.17;;;2.70;;
22973;SDS011;11653;50.848;4.584;2023-03-19T11:50:13;8.27;;;2.83;;
22973;SDS011;11653;50.848;4.584;2023-03-19T11:53:37;8.00;;;2.20;;
22973;SDS011;11653;50.848;4.584;2023-03-19T12:08:37;7.17;;;2.83;;
22973;SDS011;11653;50.848;4.584;2023-03-19T12:11:23;7.93;;;3.30;;
22973;SDS011;11653;50.848;4.584;2023-03-19T12:16:57;9.07;;;5.07;;
22973;SDS011;11653;50.848;4.584;2023-03-19T12:19:32;14.83;;;5.53;;
22973;SDS011;11653;50.848;4.584;2023-03-19T12:33:46;13.50;;;6.07;;
22973;SDS011;11653;50.848;4.584;2023-03-19T12:36:21;9.00;;;5.07;;
22973;SDS011;11653;50.848;4.584;2023-03-19T12:38:52;8.77;;;4.97;;
22973;SDS011;11653;50.848;4.584;2023-03-19T12:41:24;8.43;;;5.20;;
22973;SDS011;11653;50.848;4.584;2023-03-19T12:49:35;8.57;;;4.40;;
22973;SDS011;11653;50.848;4.584;2023-03-19T12:52:49;13.30;;;5.03;;
22973;SDS011;11653;50.848;4.584;2023-03-19T12:55:19;8.83;;;4.67;;
22973;SDS011;11653;50.848;4.584;2023-03-19T13:00:48;11.27;;;5.07;;
22973;SDS011;11653;50.848;4.584;2023-03-19T13:03:28;12.37;;;5.80;;
22973;SDS011;11653;50.848;4.584;2023-03-19T13:06:07;10.40;;;4.90;;
22973;SDS011;11653;50.848;4.584;2023-03-19T13:08:44;10.47;;;5.20;;
22973;SDS011;11653;50.848;4.584;2023-03-19T13:11:35;7.03;;;4.47;;
22973;SDS011;11653;50.848;4.584;2023-03-19T13:23:43;9.83;;;5.37;;
22973;SDS011;11653;50.848;4.584;2023-03-19T13:26:11;7.77;;;5.40;;
22973;SDS011;11653;50.848;4.584;2023-03-19T13:29:00;10.37;;;5.80;;
22973;SDS011;11653;50.848;4.584;2023-03-19T13:31:26;13.70;;;6.70;;
22973;SDS011;11653;50.848;4.584;2023-03-19T13:34:01;13.97;;;7.40;;
22973;SDS011;11653;50.848;4.584;2023-03-19T13:36:30;11.77;;;6.40;;
22973;SDS011;11653;50.848;4.584;2023-03-19T13:39:02;13.20;;;6.77;;
22973;SDS011;11653;50.848;4.584;2023-03-19T13:43:57;10.20;;;4.93;;
22973;SDS011;11653;50.848;4.584;2023-03-19T13:46:25;10.00;;;3.33;;
22973;SDS011;11653;50.848;4.584;2023-03-19T13:48:57;5.10;;;2.97;;
22973;SDS011;11653;50.848;4.584;2023-03-19T13:51:33;7.30;;;3.63;;
22973;SDS011;11653;50.848;4.584;2023-03-19T13:59:47;13.97;;;6.97;;
22973;SDS011;11653;50.848;4.584;2023-03-19T14:05:18;9.30;;;6.53;;
22973;SDS011;11653;50.848;4.584;2023-03-19T14:07:52;13.93;;;8.30;;
22973;SDS011;11653;50.848;4.584;2023-03-19T14:12:44;17.10;;;9.10;;
22973;SDS011;11653;50.848;4.584;2023-03-19T14:17:38;16.07;;;9.17;;
22973;SDS011;11653;50.848;4.584;2023-03-19T14:23:01;20.13;;;11.10;;
22973;SDS011;11653;50.848;4.584;2023-03-19T14:31:51;14.33;;;8.00;;
22973;SDS011;11653;50.848;4.584;2023-03-19T14:34:11;10.10;;;6.97;;
22973;SDS011;11653;50.848;4.584;2023-03-19T14:39:27;7.57;;;4.97;;
22973;SDS011;11653;50.848;4.584;2023-03-19T14:42:03;7.60;;;4.70;;
22973;SDS011;11653;50.848;4.584;2023-03-19T14:44:47;6.70;;;4.80;;
22973;SDS011;11653;50.848;4.584;2023-03-19T14:53:18;7.80;;;5.57;;
22973;SDS011;11653;50.848;4.584;2023-03-19T14:55:50;9.70;;;5.43;;
22973;SDS011;11653;50.848;4.584;2023-03-19T14:58:20;9.53;;;6.33;;
22973;SDS011;11653;50.848;4.584;2023-03-19T15:00:50;10.37;;;6.37;;
22973;SDS011;11653;50.848;4.584;2023-03-19T15:03:19;13.23;;;7.77;;
22973;SDS011;11653;50.848;4.584;2023-03-19T15:06:06;12.07;;;7.17;;
22973;SDS011;11653;50.848;4.584;2023-03-19T15:08:36;9.80;;;7.57;;
22973;SDS011;11653;50.848;4.584;2023-03-19T15:19:08;11.20;;;6.97;;
22973;SDS011;11653;50.848;4.584;2023-03-19T15:21:38;10.00;;;6.17;;
22973;SDS011;11653;50.848;4.584;2023-03-19T15:24:04;10.17;;;7.37;;
22973;SDS011;11653;50.848;4.584;2023-03-19T15:26:32;8.73;;;6.30;;
22973;SDS011;11653;50.848;4.584;2023-03-19T15:28:59;11.00;;;6.80;;
22973;SDS011;11653;50.848;4.584;2023-03-19T15:34:20;10.93;;;5.50;;
22973;SDS011;11653;50.848;4.584;2023-03-19T15:37:12;7.00;;;5.10;;
22973;SDS011;11653;50.848;4.584;2023-03-19T15:39:47;7.90;;;4.97;;
22973;SDS011;11653;50.848;4.584;2023-03-19T15:42:15;6.17;;;4.30;;
22973;SDS011;11653;50.848;4.584;2023-03-19T15:44:47;8.10;;;5.07;;
22973;SDS011;11653;50.848;4.584;2023-03-19T15:47:18;6.43;;;3.60;;
22973;SDS011;11653;50.848;4.584;2023-03-19T15:49:48;6.87;;;3.47;;
22973;SDS011;11653;50.848;4.584;2023-03-19T15:52:22;6.17;;;3.60;;
22973;SDS011;11653;50.848;4.584;2023-03-19T15:54:50;6.50;;;3.50;;
22973;SDS011;11653;50.848;4.584;2023-03-19T15:57:19;10.10;;;4.10;;
22973;SDS011;11653;50.848;4.584;2023-03-19T15:59:46;5.93;;;3.67;;
22973;SDS011;11653;50.848;4.584;2023-03-19T16:02:20;8.00;;;4.63;;
22973;SDS011;11653;50.848;4.584;2023-03-19T16:04:53;6.77;;;4.30;;
22973;SDS011;11653;50.848;4.584;2023-03-19T16:07:23;4.57;;;4.07;;
22973;SDS011;11653;50.848;4.584;2023-03-19T16:09:51;8.47;;;4.40;;
22973;SDS011;11653;50.848;4.584;2023-03-19T16:12:51;6.70;;;4.70;;
22973;SDS011;11653;50.848;4.584;2023-03-19T16:15:30;9.53;;;5.57;;
22973;SDS011;11653;50.848;4.584;2023-03-19T16:21:29;10.70;;;5.10;;
22973;SDS011;11653;50.848;4.584;2023-03-19T16:23:35;12.60;;;6.40;;
22973;SDS011;11653;50.848;4.584;2023-03-19T16:26:13;9.03;;;5.20;;
22973;SDS011;11653;50.848;4.584;2023-03-19T16:28:40;6.37;;;5.37;;
22973;SDS011;11653;50.848;4.584;2023-03-19T16:31:24;8.10;;;5.40;;
22973;SDS011;11653;50.848;4.584;2023-03-19T16:33:53;8.07;;;5.70;;
22973;SDS011;11653;50.848;4.584;2023-03-19T16:36:21;9.80;;;5.90;;
22973;SDS011;11653;50.848;4.584;2023-03-19T16:38:55;9.60;;;5.90;;
22973;SDS011;11653;50.848;4.584;2023-03-19T16:41:29;8.97;;;5.90;;
22973;SDS011;11653;50.848;4.584;2023-03-19T16:44:14;8.53;;;5.73;;
22973;SDS011;11653;50.848;4.584;2023-03-19T16:46:46;12.43;;;6.27;;
22973;SDS011;11653;50.848;4.584;2023-03-19T16:49:15;9.47;;;6.17;;
22973;SDS011;11653;50.848;4.584;2023-03-19T16:51:45;11.70;;;6.93;;
22973;SDS011;11653;50.848;4.584;2023-03-19T16:54:11;9.57;;;6.13;;
22973;SDS011;11653;50.848;4.584;2023-03-19T16:56:38;10.20;;;6.40;;
22973;SDS011;11653;50.848;4.584;2023-03-19T16:59:03;9.07;;;6.70;;
22973;SDS011;11653;50.848;4.584;2023-03-19T17:01:29;12.53;;;6.47;;
22973;SDS011;11653;50.848;4.584;2023-03-19T17:03:55;9.70;;;6.10;;
22973;SDS011;11653;50.848;4.584;2023-03-19T17:06:21;12.67;;;5.83;;
22973;SDS011;11653;50.848;4.584;2023-03-19T17:08:46;11.03;;;6.20;;
22973;SDS011;11653;50.848;4.584;2023-03-19T17:11:15;11.67;;;6.10;;
22973;SDS011;11653;50.848;4.584;2023-03-19T17:13:49;9.50;;;6.40;;
22973;SDS011;11653;50.848;4.584;2023-03-19T17:16:15;10.17;;;7.13;;
22973;SDS011;11653;50.848;4.584;2023-03-19T17:18:41;10.67;;;6.20;;
22973;SDS011;11653;50.848;4.584;2023-03-19T17:21:08;12.47;;;5.57;;
22973;SDS011;11653;50.848;4.584;2023-03-19T17:23:40;11.57;;;6.87;;
22973;SDS011;11653;50.848;4.584;2023-03-19T17:26:16;13.10;;;7.00;;
22973;SDS011;11653;50.848;4.584;2023-03-19T17:28:50;11.20;;;6.13;;
22973;SDS011;11653;50.848;4.584;2023-03-19T17:33:51;12.10;;;6.60;;
22973;SDS011;11653;50.848;4.584;2023-03-19T17:36:26;12.37;;;6.90;;
22973;SDS011;11653;50.848;4.584;2023-03-19T17:38:52;9.70;;;6.27;;
22973;SDS011;11653;50.848;4.584;2023-03-19T17:41:18;9.17;;;5.77;;
22973;SDS011;11653;50.848;4.584;2023-03-19T17:43:44;12.10;;;5.90;;
22973;SDS011;11653;50.848;4.584;2023-03-19T17:46:15;12.70;;;6.20;;
22973;SDS011;11653;50.848;4.584;2023-03-19T17:48:46;12.20;;;5.93;;
22973;SDS011;11653;50.848;4.584;2023-03-19T17:51:13;7.10;;;4.77;;
22973;SDS011;11653;50.848;4.584;2023-03-19T17:53:40;11.00;;;4.43;;
22973;SDS011;11653;50.848;4.584;2023-03-19T17:56:08;10.47;;;5.20;;
22973;SDS011;11653;50.848;4.584;2023-03-19T17:58:39;7.70;;;4.93;;
22973;SDS011;11653;50.848;4.584;2023-03-19T18:01:08;7.37;;;4.93;;
22973;SDS011;11653;50.848;4.584;2023-03-19T18:03:38;10.40;;;4.47;;
22973;SDS011;11653;50.848;4.584;2023-03-19T18:06:04;10.80;;;5.83;;
22973;SDS011;11653;50.848;4.584;2023-03-19T18:08:31;12.70;;;6.13;;
22973;SDS011;11653;50.848;4.584;2023-03-19T18:10:56;11.40;;;5.57;;
22973;SDS011;11653;50.848;4.584;2023-03-19T18:13:22;11.50;;;6.70;;
22973;SDS011;11653;50.848;4.584;2023-03-19T18:15:48;11.37;;;5.83;;
22973;SDS011;11653;50.848;4.584;2023-03-19T18:18:18;10.40;;;5.57;;
22973;SDS011;11653;50.848;4.584;2023-03-19T18:20:45;11.97;;;5.47;;
22973;SDS011;11653;50.848;4.584;2023-03-19T18:23:12;9.30;;;5.13;;
22973;SDS011;11653;50.848;4.584;2023-03-19T18:25:40;8.43;;;5.00;;
22973;SDS011;11653;50.848;4.584;2023-03-19T18:28:06;8.30;;;5.17;;
22973;SDS011;11653;50.848;4.584;2023-03-19T18:30:33;9.37;;;4.70;;
22973;SDS011;11653;50.848;4.584;2023-03-19T18:33:02;9.97;;;5.50;;
22973;SDS011;11653;50.848;4.584;2023-03-19T18:35:30;9.67;;;4.70;;
22973;SDS011;11653;50.848;4.584;2023-03-19T18:38:04;9.33;;;4.67;;
22973;SDS011;11653;50.848;4.584;2023-03-19T18:40:37;8.93;;;5.50;;
22973;SDS011;11653;50.848;4.584;2023-03-19T18:43:03;10.17;;;6.07;;
22973;SDS011;11653;50.848;4.584;2023-03-19T18:45:32;10.80;;;5.00;;
22973;SDS011;11653;50.848;4.584;2023-03-19T18:47:57;9.57;;;5.17;;
22973;SDS011;11653;50.848;4.584;2023-03-19T18:50:25;11.23;;;5.97;;
22973;SDS011;11653;50.848;4.584;2023-03-19T18:52:53;10.83;;;5.30;;
22973;SDS011;11653;50.848;4.584;2023-03-19T18:55:22;10.20;;;5.53;;
22973;SDS011;11653;50.848;4.584;2023-03-19T18:57:53;10.57;;;5.43;;
22973;SDS011;11653;50.848;4.584;2023-03-19T19:00:39;10.30;;;6.00;;
22973;SDS011;11653;50.848;4.584;2023-03-19T19:03:05;9.70;;;5.80;;